createdAt,value
2023-03-23T15:58:13.666Z,1.17
2023-03-23T16:00:41.617Z,1.13
2023-03-23T16:03:09.526Z,1.33
2023-03-23T16:05:35.974Z,1.27
2023-03-23T16:08:02.493Z,1.10
2023-03-23T16:10:29.053Z,1.50
2023-03-23T16:12:55.788Z,1.30
2023-03-23T16:15:23.835Z,1.23
2023-03-23T16:17:50.610Z,2.37
2023-03-23T16:20:19.834Z,2.63
2023-03-23T16:22:46.901Z,1.03
2023-03-23T16:25:13.731Z,1.10
2023-03-23T16:27:40.835Z,1.20
2023-03-23T16:30:16.692Z,3.60
2023-03-23T16:32:43.413Z,1.80
2023-03-23T16:35:10.657Z,1.77
2023-03-23T16:37:37.435Z,1.10
2023-03-23T16:40:04.630Z,1.67
2023-03-23T16:42:31.077Z,1.07
2023-03-23T16:44:57.894Z,1.20
2023-03-23T16:47:25.464Z,1.10
2023-03-23T16:49:52.478Z,1.20
2023-03-23T16:52:18.986Z,1.47
2023-03-23T16:54:45.921Z,1.40
2023-03-23T16:57:12.507Z,1.20
2023-03-23T16:59:39.177Z,1.17
2023-03-23T17:02:05.848Z,1.47
2023-03-23T17:04:33.454Z,1.50
2023-03-23T17:07:00.713Z,1.60
2023-03-23T17:09:27.113Z,1.50
2023-03-23T17:11:54.170Z,1.67
2023-03-23T17:14:20.883Z,1.63
2023-03-23T17:16:47.525Z,1.60
2023-03-23T17:19:14.276Z,1.60
2023-03-23T17:21:41.011Z,2.27
2023-03-23T17:24:07.904Z,2.20
2023-03-23T17:26:34.640Z,1.80
2023-03-23T17:29:01.529Z,2.60
2023-03-23T17:31:28.058Z,2.10
2023-03-23T17:33:54.597Z,2.07
2023-03-23T17:36:21.577Z,2.40
2023-03-23T17:38:48.048Z,2.17
2023-03-23T17:41:14.976Z,2.03
2023-03-23T17:43:42.447Z,1.37
2023-03-23T17:46:10.063Z,2.20
2023-03-23T17:48:37.105Z,1.10
2023-03-23T17:51:03.952Z,1.40
2023-03-23T17:53:32.137Z,1.67
2023-03-23T17:55:59.881Z,1.60
2023-03-23T17:58:30.566Z,1.80
2023-03-23T18:01:04.318Z,1.77
2023-03-23T18:03:32.535Z,2.03
2023-03-23T18:06:04.081Z,2.00
2023-03-23T18:08:34.515Z,2.00
2023-03-23T18:11:01.331Z,2.13
2023-03-23T18:13:28.808Z,1.83
2023-03-23T18:15:56.327Z,2.00
2023-03-23T18:18:23.572Z,2.47
2023-03-23T18:20:56.921Z,1.90
2023-03-23T18:23:23.542Z,2.77
2023-03-23T18:25:51.246Z,1.70
2023-03-23T18:28:17.764Z,2.73
2023-03-23T18:30:49.249Z,2.63
2023-03-23T18:33:17.358Z,2.20
2023-03-23T18:35:46.213Z,2.47
2023-03-23T18:38:13.391Z,2.20
2023-03-23T18:40:43.779Z,2.37
2023-03-23T18:43:10.594Z,2.90
2023-03-23T18:45:37.782Z,3.07
2023-03-23T18:48:08.565Z,2.67
2023-03-23T18:50:35.001Z,3.43
2023-03-23T18:53:01.443Z,3.60
2023-03-23T18:55:27.973Z,4.40
2023-03-23T18:57:54.574Z,3.60
2023-03-23T19:00:22.367Z,3.93
2023-03-23T19:02:52.068Z,4.07
2023-03-23T19:05:19.692Z,3.43
2023-03-23T19:07:46.340Z,3.53
2023-03-23T19:10:12.824Z,4.13
2023-03-23T19:12:39.466Z,4.00
2023-03-23T19:15:07.009Z,3.97
2023-03-23T19:17:35.798Z,3.80
2023-03-23T19:20:02.863Z,4.00
2023-03-23T19:22:29.469Z,4.13
2023-03-23T19:24:56.099Z,4.17
2023-03-23T19:27:22.898Z,4.40
2023-03-23T19:29:49.297Z,4.80
2023-03-23T19:32:16.929Z,4.93
2023-03-23T19:34:43.511Z,4.37
2023-03-23T19:37:11.314Z,4.50
2023-03-23T19:39:38.016Z,4.47
2023-03-23T19:42:04.669Z,4.77
2023-03-23T19:44:32.038Z,4.90
2023-03-23T19:46:58.654Z,4.63
2023-03-23T19:49:26.721Z,4.77
2023-03-23T19:52:07.771Z,4.13
2023-03-23T19:54:36.918Z,4.97
2023-03-23T19:57:03.700Z,4.70
2023-03-23T19:59:30.566Z,4.10
2023-03-23T20:01:57.554Z,5.73
2023-03-23T20:04:24.328Z,5.20
2023-03-23T20:06:52.107Z,4.87
2023-03-23T20:09:19.019Z,3.83
2023-03-23T20:11:45.596Z,4.43
2023-03-23T20:14:12.121Z,3.83
2023-03-23T20:16:39.141Z,4.60
2023-03-23T20:19:05.961Z,4.07
2023-03-23T20:21:33.071Z,4.17
2023-03-23T20:24:00.311Z,4.57
2023-03-23T20:26:34.827Z,3.90
2023-03-23T20:29:01.516Z,4.27
2023-03-23T20:31:31.190Z,4.90
2023-03-23T20:34:02.996Z,4.10
2023-03-23T20:36:34.529Z,4.40
2023-03-23T20:39:05.741Z,3.73
2023-03-23T20:41:33.140Z,3.90
2023-03-23T20:43:59.718Z,4.20
2023-03-23T20:46:26.513Z,3.80
2023-03-23T20:48:53.054Z,4.10
2023-03-23T20:51:20.888Z,4.27
2023-03-23T20:53:48.491Z,4.40
2023-03-23T20:56:15.304Z,4.23
2023-03-23T20:58:42.590Z,4.40
2023-03-23T21:01:10.734Z,3.67
2023-03-23T21:03:40.016Z,4.30
2023-03-23T21:06:07.115Z,3.47
2023-03-23T21:08:36.055Z,3.80
2023-03-23T21:11:03.238Z,3.83
2023-03-23T21:13:30.266Z,4.00
2023-03-23T21:15:57.162Z,4.67
2023-03-23T21:18:23.562Z,4.03
2023-03-23T21:20:50.558Z,3.67
2023-03-23T21:23:19.689Z,4.30
2023-03-23T21:25:46.430Z,4.63
2023-03-23T21:28:13.268Z,4.13
2023-03-23T21:30:45.239Z,3.73
2023-03-23T21:33:12.872Z,4.20
2023-03-23T21:35:41.539Z,3.80
2023-03-23T21:38:14.060Z,3.90
2023-03-23T21:40:41.926Z,3.60
2023-03-23T21:43:14.575Z,3.90
2023-03-23T21:45:42.303Z,4.10
2023-03-23T21:48:09.053Z,5.03
2023-03-23T21:50:38.124Z,4.10
2023-03-23T21:53:05.155Z,3.97
2023-03-23T21:55:33.523Z,3.40
2023-03-23T21:58:01.324Z,4.00
2023-03-23T22:00:29.605Z,4.10
2023-03-23T22:02:56.746Z,3.83
2023-03-23T22:05:42.404Z,3.90
2023-03-23T22:08:09.305Z,3.33
2023-03-23T22:10:39.854Z,3.73
2023-03-23T22:13:06.474Z,3.57
2023-03-23T22:15:32.955Z,3.37
2023-03-23T22:17:59.654Z,3.40
2023-03-23T22:20:26.598Z,2.77
2023-03-23T22:22:53.628Z,3.23
2023-03-23T22:25:20.061Z,3.70
2023-03-23T22:27:49.587Z,3.80
2023-03-23T22:30:16.164Z,3.00
2023-03-23T22:32:42.630Z,3.30
2023-03-23T22:35:12.352Z,2.47
2023-03-23T22:37:38.789Z,2.20
2023-03-23T22:40:07.151Z,2.50
2023-03-23T22:42:33.553Z,2.37
2023-03-23T22:45:00.002Z,2.93
2023-03-23T22:47:27.006Z,2.90
2023-03-23T22:49:53.646Z,2.40
2023-03-23T22:52:20.398Z,2.50
2023-03-23T22:54:47.971Z,2.70
2023-03-23T22:57:14.955Z,2.53
2023-03-23T22:59:42.548Z,2.40
2023-03-23T23:02:09.317Z,2.23
2023-03-23T23:04:36.872Z,2.10
2023-03-23T23:07:12.570Z,2.47
2023-03-23T23:09:43.617Z,2.37
2023-03-23T23:12:11.965Z,2.03
2023-03-23T23:14:39.767Z,1.97
2023-03-23T23:17:06.352Z,2.00
2023-03-23T23:19:32.919Z,2.23
2023-03-23T23:22:09.334Z,2.10
2023-03-23T23:24:43.464Z,2.07
2023-03-23T23:27:09.837Z,1.93
2023-03-23T23:29:36.522Z,1.73
2023-03-23T23:32:03.848Z,2.37
2023-03-23T23:34:30.395Z,2.17
2023-03-23T23:36:59.373Z,2.00
2023-03-23T23:39:27.463Z,1.90
2023-03-23T23:41:53.958Z,2.00
2023-03-23T23:44:20.942Z,2.30
2023-03-23T23:46:47.451Z,2.00
2023-03-23T23:49:14.958Z,2.13
2023-03-23T23:51:41.401Z,1.80
2023-03-23T23:54:07.803Z,2.33
2023-03-23T23:56:34.315Z,1.73
2023-03-23T23:59:00.748Z,2.63
